Boulder, Colorado
Current Conditions -  °F | °C
As of 7:56 PM on Tuesday 21 Oct 2014 (Local Time) from KBDU Reporting Station
Overcast Overcast  
Wind Chill: 64°   Ceiling: 9000
Heat Index: 64°   Visibility: 10mi
Dew Point: 37°   Wind: 21mph
Humidity: 37%   Direction: 260°W
Pressure: 29.93"   Gusts: 26mph
Location:  40.02°N, 105.27°W
Report Text: KBDU 220156Z AUTO 26018G23KT 10SM OVC090 18/03 A2993 RMK AO2 LTG DSNT NW
Loading
Personal Weather Stations






























Interactive Weather Map
Tropical Storm Tracking
New forecast layout! Learn more

10-Day Weather Forecast

Advertisements
Track Severe Weather on mobile